Terminal Aerodrome Forecast
Issued by NWS Portland, ME

Home | Current Version | Previous Version | Text Only | Print | Product List | Glossary On
Versions: 1 2 3 4 5 6 7 8 9 10 11 12 13 14 15 16 17 18 19
000
FTUS41 KGYX 271122
TAFCON
TAF
KCON 271122Z 2712/2812 00000KT P6SM SKC
     FM271700 27006KT P6SM FEW050
     FM280000 00000KT P6SM SKC
     FM280600 00000KT 6SM BR SKC
     FM280800 00000KT 4SM BR SKC=

USA.gov is the U.S. government's official web portal to all federal, state and local government web resources and services.